createdAt,value
2023-02-27T00:01:42.591Z,2.7
2023-02-27T00:04:30.428Z,2.1
2023-02-27T00:07:17.733Z,2.6
2023-02-27T00:10:10.766Z,4.7
2023-02-27T00:12:59.209Z,4.9
2023-02-27T00:15:46.523Z,4
2023-02-27T00:18:34.785Z,3.1
2023-02-27T00:21:22.038Z,2.4
2023-02-27T00:24:09.995Z,1.8
2023-02-27T00:26:57.500Z,1.4
2023-02-27T00:29:44.873Z,3
2023-02-27T00:32:32.258Z,5
2023-02-27T00:35:21.143Z,4.7
2023-02-27T00:38:09.262Z,3.8
2023-02-27T00:40:57.015Z,2.9
2023-02-27T00:43:44.691Z,2.2
2023-02-27T00:46:32.017Z,1.7
2023-02-27T00:49:19.399Z,3
2023-02-27T00:52:06.878Z,4.8
2023-02-27T00:54:55.510Z,4.4
2023-02-27T00:57:42.890Z,3.5
2023-02-27T01:00:30.313Z,2.7
2023-02-27T01:03:17.683Z,2
2023-02-27T01:06:05.313Z,1.6
2023-02-27T01:08:53.553Z,3
2023-02-27T01:11:40.870Z,4.7
2023-02-27T01:14:28.231Z,4.3
2023-02-27T01:17:15.764Z,3.4
2023-02-27T01:20:03.277Z,2.5
2023-02-27T01:22:54.160Z,1.9
2023-02-27T01:25:41.416Z,2.4
2023-02-27T01:28:28.717Z,4.4
2023-02-27T01:31:16.162Z,4.5
2023-02-27T01:34:03.516Z,3.6
2023-02-27T01:36:50.713Z,2.8
2023-02-27T01:39:38.408Z,2.1
2023-02-27T01:42:25.840Z,1.5
2023-02-27T01:45:14.250Z,2.9
2023-02-27T01:48:13.326Z,4.9
2023-02-27T01:51:05.313Z,4.3
2023-02-27T01:53:56.726Z,3.4
2023-02-27T01:56:45.089Z,2.5
2023-02-27T01:59:32.966Z,1.8
2023-02-27T02:02:23.762Z,2.2
2023-02-27T02:05:15.644Z,4.2
2023-02-27T02:08:03.170Z,4.6
2023-02-27T02:10:51.758Z,3.7
2023-02-27T02:13:40.653Z,2.8
2023-02-27T02:16:28.048Z,2
2023-02-27T02:19:34.007Z,1.6
2023-02-27T02:23:10.974Z,3.9
2023-02-27T02:27:11.536Z,4.2
2023-02-27T02:30:11.979Z,3.2
2023-02-27T02:33:44.071Z,2.1
2023-02-27T02:36:53.826Z,2.2
2023-02-27T02:40:03.267Z,4.5
2023-02-27T02:43:01.972Z,4.8
2023-02-27T02:45:57.381Z,3.8
2023-02-27T02:48:54.586Z,2.8
2023-02-27T02:51:50.909Z,1.9
2023-02-27T02:54:46.226Z,1.4
2023-02-27T02:57:42.863Z,3
2023-02-27T03:00:37.397Z,4.5
2023-02-27T03:03:31.416Z,3.7
2023-02-27T03:06:24.328Z,2.7
2023-02-27T03:09:17.466Z,1.9
2023-02-27T03:12:10.392Z,1.5
2023-02-27T03:15:02.743Z,3.2
2023-02-27T03:17:57.456Z,5.1
2023-02-27T03:20:51.277Z,4.4
2023-02-27T03:23:43.647Z,3.4
2023-02-27T03:26:33.120Z,2.5
2023-02-27T03:29:27.010Z,1.7
2023-02-27T03:32:22.430Z,2.6
2023-02-27T03:35:15.933Z,4.8
2023-02-27T03:38:03.807Z,4.9
2023-02-27T03:41:01.233Z,3.8
2023-02-27T03:43:57.002Z,2.8
2023-02-27T03:46:54.553Z,2.2
2023-02-27T03:49:42.240Z,3.8
2023-02-27T03:52:29.607Z,4.7
2023-02-27T03:55:17.497Z,3.9
2023-02-27T03:58:08.472Z,2.9
2023-02-27T04:00:57.496Z,2.1
2023-02-27T04:03:45.010Z,2.9
2023-02-27T04:06:40.585Z,5
2023-02-27T04:10:05.267Z,4.8
2023-02-27T04:13:12.557Z,3.7
2023-02-27T04:16:13.270Z,2.8
2023-02-27T04:19:18.603Z,2.3
2023-02-27T04:22:21.749Z,4.2
2023-02-27T04:25:18.601Z,5.5
2023-02-27T04:28:20.714Z,4.5
2023-02-27T04:31:14.514Z,3.5
2023-02-27T04:34:09.227Z,2.6
2023-02-27T04:37:05.693Z,3.2
2023-02-27T04:39:58.447Z,5.2
2023-02-27T04:42:51.023Z,5.3
2023-02-27T04:45:42.424Z,4.3
2023-02-27T04:48:33.073Z,3.3
2023-02-27T04:51:26.099Z,2.5
2023-02-27T04:54:20.925Z,3.7
2023-02-27T04:57:13.712Z,5.5
2023-02-27T05:00:06.004Z,5.1
2023-02-27T05:02:58.547Z,3.9
2023-02-27T05:05:52.159Z,3
2023-02-27T05:08:45.143Z,3.6
2023-02-27T05:11:42.208Z,5.6
2023-02-27T05:14:37.139Z,5.4
2023-02-27T05:17:28.616Z,4.3
2023-02-27T05:20:21.571Z,3.3
2023-02-27T05:23:12.447Z,2.9
2023-02-27T05:26:06.416Z,4.5
2023-02-27T05:29:01.856Z,5.9
2023-02-27T05:32:02.453Z,5
2023-02-27T05:34:59.875Z,4
2023-02-27T05:37:56.572Z,3
2023-02-27T05:40:51.267Z,3.8
2023-02-27T05:43:42.608Z,5.7
2023-02-27T05:46:35.013Z,5.5
2023-02-27T05:49:26.588Z,4.4
2023-02-27T05:52:18.470Z,3.5
2023-02-27T05:55:09.679Z,3.3
2023-02-27T05:58:03.748Z,5.2
2023-02-27T06:00:58.737Z,6.2
2023-02-27T06:03:48.413Z,5.2
2023-02-27T06:06:36.121Z,4.2
2023-02-27T06:09:26.476Z,3.3
2023-02-27T06:12:13.805Z,3.9
2023-02-27T06:15:01.162Z,5.8
2023-02-27T06:17:48.682Z,5.9
2023-02-27T06:20:36.248Z,4.9
2023-02-27T06:23:23.811Z,3.9
2023-02-27T06:26:11.142Z,3.1
2023-02-27T06:28:58.920Z,4.2
2023-02-27T06:31:46.432Z,6.1
2023-02-27T06:34:33.860Z,6.1
2023-02-27T06:37:21.286Z,5.1
2023-02-27T06:40:08.917Z,4.1
2023-02-27T06:42:58.741Z,3.3
2023-02-27T06:45:46.722Z,4.4
2023-02-27T06:48:34.199Z,6.2
2023-02-27T06:51:21.598Z,6.1
2023-02-27T06:54:09.557Z,5
2023-02-27T06:56:58.167Z,4.1
2023-02-27T06:59:45.658Z,3.4
2023-02-27T07:02:32.966Z,4.8
2023-02-27T07:05:20.533Z,6.7
2023-02-27T07:08:08.332Z,6.2
2023-02-27T07:10:57.198Z,5.1
2023-02-27T07:13:44.868Z,4.2
2023-02-27T07:16:32.269Z,3.4
2023-02-27T07:19:19.652Z,4.2
2023-02-27T07:22:08.247Z,6.3
2023-02-27T07:24:56.848Z,6.6
2023-02-27T07:27:44.278Z,5.7
2023-02-27T07:30:34.210Z,4.7
2023-02-27T07:33:21.709Z,3.9
2023-02-27T07:36:09.433Z,4.4
2023-02-27T07:38:57.865Z,6.5
2023-02-27T07:41:45.408Z,6.8
2023-02-27T07:44:33.055Z,5.9
2023-02-27T07:47:20.727Z,5
2023-02-27T07:50:08.362Z,4.1
2023-02-27T07:52:58.683Z,4.5
2023-02-27T07:55:46.204Z,6.5
2023-02-27T07:58:33.500Z,6.7
2023-02-27T08:01:20.891Z,5.8
2023-02-27T08:04:08.493Z,5
2023-02-27T08:06:56.978Z,4.3
2023-02-27T08:09:45.287Z,4
2023-02-27T08:12:32.751Z,5.6
2023-02-27T08:15:20.112Z,7.3
2023-02-27T08:18:07.889Z,7.1
2023-02-27T08:20:56.363Z,6
2023-02-27T08:23:43.778Z,5.2
2023-02-27T08:26:31.323Z,4.6
2023-02-27T08:29:18.771Z,4.3
2023-02-27T08:32:06.697Z,6
2023-02-27T08:34:57.109Z,7.2
2023-02-27T08:37:44.589Z,6.5
2023-02-27T08:40:32.008Z,5.7
2023-02-27T08:43:19.493Z,5
2023-02-27T08:46:07.812Z,4.5
2023-02-27T08:48:56.460Z,5.8
2023-02-27T08:51:44.034Z,7.1
2023-02-27T08:54:31.381Z,6.7
2023-02-27T08:57:18.769Z,6
2023-02-27T09:00:06.657Z,5.2
2023-02-27T09:02:59.216Z,4.8
2023-02-27T09:05:47.067Z,4.5
2023-02-27T09:08:34.884Z,5.4
2023-02-27T09:11:22.256Z,7.4
2023-02-27T09:14:10.808Z,7.4
2023-02-27T09:16:58.737Z,6.7
2023-02-27T09:19:46.216Z,5.9
2023-02-27T09:22:33.913Z,5.4
2023-02-27T09:25:21.276Z,5
2023-02-27T09:28:09.027Z,4.8
2023-02-27T09:30:57.515Z,6.4
2023-02-27T09:33:46.002Z,7.1
2023-02-27T09:36:33.864Z,6.5
2023-02-27T09:39:21.304Z,6
2023-02-27T09:42:08.984Z,5.5
2023-02-27T09:45:05.962Z,5.1
2023-02-27T09:48:08.974Z,4.8
2023-02-27T09:51:05.951Z,5.2
2023-02-27T09:53:54.645Z,7.2
2023-02-27T09:56:45.047Z,7.6
2023-02-27T09:59:37.057Z,7
2023-02-27T10:02:29.930Z,6.5
2023-02-27T10:05:29.430Z,6.1
2023-02-27T10:08:25.729Z,5.8
2023-02-27T10:11:19.585Z,5.6
2023-02-27T10:14:16.929Z,5.4
2023-02-27T10:17:15.389Z,5.5
2023-02-27T10:20:09.515Z,7.1
2023-02-27T10:23:02.708Z,7.4
2023-02-27T10:25:57.443Z,7
2023-02-27T10:28:45.938Z,6.6
2023-02-27T10:31:33.820Z,6.2
2023-02-27T10:34:21.643Z,6
2023-02-27T10:37:11.345Z,5.8
2023-02-27T10:40:01.432Z,5.7
2023-02-27T10:42:51.870Z,5.6
2023-02-27T10:45:41.384Z,5.8
2023-02-27T10:48:29.386Z,6.6
2023-02-27T10:51:17.805Z,6.6
2023-02-27T10:54:09.802Z,6.3
2023-02-27T10:57:05.416Z,6.2
2023-02-27T11:00:06.692Z,6.1
2023-02-27T11:03:13.039Z,6.1
2023-02-27T11:06:05.889Z,6.1
2023-02-27T11:08:58.784Z,6.1
2023-02-27T11:12:07.206Z,6
2023-02-27T11:15:05.074Z,5.9
2023-02-27T11:18:10.482Z,5.9
2023-02-27T11:21:10.820Z,5.8
2023-02-27T11:24:04.962Z,5.7
2023-02-27T11:27:04.301Z,5.5
2023-02-27T11:30:06.465Z,5.4
2023-02-27T11:33:09.762Z,5.2
2023-02-27T11:36:05.208Z,5.1
2023-02-27T11:38:54.592Z,5.1
2023-02-27T11:41:42.282Z,5.1
2023-02-27T11:44:49.799Z,5.1
2023-02-27T11:47:45.138Z,5
2023-02-27T11:50:36.442Z,5
2023-02-27T11:53:38.221Z,5
2023-02-27T11:57:00.611Z,5
2023-02-27T12:00:00.466Z,4.9
2023-02-27T12:02:59.464Z,5
2023-02-27T12:05:51.645Z,5
2023-02-27T12:08:43.928Z,5.2
2023-02-27T12:11:36.362Z,5.3
2023-02-27T12:14:29.331Z,5.4
2023-02-27T12:17:26.015Z,5.3
2023-02-27T12:20:19.937Z,5.3
2023-02-27T12:23:13.703Z,5.3
2023-02-27T12:26:08.640Z,5.3
2023-02-27T12:29:03.673Z,5.3
2023-02-27T12:32:05.023Z,5.2
2023-02-27T12:35:02.885Z,5.2
2023-02-27T12:37:59.009Z,5.2
2023-02-27T12:40:47.545Z,5.2
2023-02-27T12:43:47.129Z,5.1
2023-02-27T12:46:44.495Z,5.1
2023-02-27T12:49:39.057Z,4.9
2023-02-27T12:52:36.624Z,4.8
2023-02-27T12:55:35.956Z,4.8
2023-02-27T12:58:30.316Z,4.7
2023-02-27T13:01:30.634Z,4.7
2023-02-27T13:04:29.791Z,4.6
2023-02-27T13:07:29.270Z,4.6
2023-02-27T13:10:21.937Z,4.5
2023-02-27T13:13:16.536Z,4.5
2023-02-27T13:16:12.198Z,4.5
2023-02-27T13:19:03.111Z,4.6
2023-02-27T13:21:57.428Z,4.6
2023-02-27T13:24:54.985Z,4.6
2023-02-27T13:27:45.654Z,4.6
2023-02-27T13:30:36.814Z,4.7
2023-02-27T13:33:28.003Z,4.7
2023-02-27T13:36:23.156Z,4.7
2023-02-27T13:39:18.281Z,4.7
2023-02-27T13:42:40.777Z,4.7
2023-02-27T13:45:47.804Z,4.8
2023-02-27T13:48:38.889Z,4.7
2023-02-27T13:51:28.735Z,4.8
2023-02-27T13:54:31.186Z,4.8
2023-02-27T13:57:24.796Z,4.8
2023-02-27T14:00:16.407Z,4.8
2023-02-27T14:03:08.108Z,4.8
2023-02-27T14:06:05.520Z,4.9
2023-02-27T14:09:08.786Z,4.9
2023-02-27T14:12:06.598Z,4.8
2023-02-27T14:15:13.708Z,4.7
2023-02-27T14:18:39.047Z,4.7
2023-02-27T14:21:36.486Z,4.6
2023-02-27T14:25:01.116Z,4.6
2023-02-27T14:28:03.736Z,4.6
2023-02-27T14:31:01.723Z,4.6
2023-02-27T14:33:52.424Z,4.5
2023-02-27T14:36:43.800Z,4.5
2023-02-27T14:39:36.075Z,4.5
2023-02-27T14:42:25.352Z,4.5
2023-02-27T14:45:29.829Z,4.5
2023-02-27T14:48:17.592Z,4.4
2023-02-27T14:51:11.792Z,4.3
2023-02-27T14:54:01.564Z,4.3
2023-02-27T14:56:52.248Z,4.4
2023-02-27T14:59:42.196Z,4.4
2023-02-27T15:02:32.212Z,4.3
2023-02-27T15:05:22.286Z,4.3
2023-02-27T15:08:15.016Z,4.2
2023-02-27T15:11:05.642Z,4.2
2023-02-27T15:13:59.119Z,4.1
2023-02-27T15:16:49.223Z,4.2
2023-02-27T15:19:40.312Z,4.2
2023-02-27T15:22:38.984Z,4.2
2023-02-27T15:25:26.660Z,4.2
2023-02-27T15:28:17.138Z,4.1
2023-02-27T15:31:08.687Z,4
2023-02-27T15:34:04.036Z,3.9
2023-02-27T15:36:58.671Z,3.9
2023-02-27T15:39:47.102Z,3.8
2023-02-27T15:42:36.414Z,3.8
2023-02-27T15:45:24.462Z,3.8
2023-02-27T15:48:16.416Z,3.7
2023-02-27T15:51:06.130Z,3.7
2023-02-27T15:53:55.664Z,3.6
2023-02-27T15:56:45.334Z,3.6
2023-02-27T15:59:32.784Z,3.6
2023-02-27T16:02:25.331Z,3.5
2023-02-27T16:05:16.182Z,3.5
2023-02-27T16:08:06.761Z,3.4
2023-02-27T16:11:03.773Z,3.4
2023-02-27T16:13:51.205Z,3.4
2023-02-27T16:16:39.643Z,3.4
2023-02-27T16:19:39.577Z,3.3
2023-02-27T16:22:26.823Z,3.3
2023-02-27T16:25:15.172Z,3.3
2023-02-27T16:28:05.008Z,3.3
2023-02-27T16:30:58.394Z,3.2
2023-02-27T16:33:47.057Z,3.2
2023-02-27T16:36:34.472Z,3.2
2023-02-27T16:39:21.825Z,3.2
2023-02-27T16:42:10.390Z,3.2
2023-02-27T16:44:58.495Z,3.1
2023-02-27T16:47:45.847Z,3.1
2023-02-27T16:50:35.634Z,3.1
2023-02-27T16:53:26.120Z,3.1
2023-02-27T16:56:13.769Z,3.1
2023-02-27T16:59:02.730Z,3
2023-02-27T17:01:50.324Z,3
2023-02-27T17:04:38.588Z,4.8
2023-02-27T17:07:28.789Z,6
2023-02-27T17:10:16.166Z,5.6
2023-02-27T17:13:06.733Z,5.1
2023-02-27T17:15:55.739Z,4.7
2023-02-27T17:18:44.136Z,4.3
2023-02-27T17:21:31.466Z,4
2023-02-27T17:24:19.533Z,3.8
2023-02-27T17:27:06.999Z,3.6
2023-02-27T17:29:56.805Z,3.4
2023-02-27T17:32:44.367Z,3.3
2023-02-27T17:35:31.929Z,3.2
2023-02-27T17:38:19.389Z,3
2023-02-27T17:41:06.709Z,2.9
2023-02-27T17:43:56.507Z,2.8
2023-02-27T17:46:46.248Z,4.4
2023-02-27T17:49:33.744Z,6.5
2023-02-27T17:52:21.395Z,6.4
2023-02-27T17:55:10.060Z,5.6
2023-02-27T17:58:00.393Z,4.9
2023-02-27T18:00:49.412Z,4.3
2023-02-27T18:03:36.996Z,3.8
2023-02-27T18:06:25.726Z,3.4
2023-02-27T18:09:13.639Z,3.1
2023-02-27T18:12:01.126Z,2.8
2023-02-27T18:14:48.764Z,2.6
2023-02-27T18:17:36.146Z,2.4
2023-02-27T18:20:23.663Z,2.2
2023-02-27T18:23:11.292Z,2.9
2023-02-27T18:25:59.970Z,5.2
2023-02-27T18:28:48.005Z,6.4
2023-02-27T18:31:37.427Z,5.7
2023-02-27T18:34:27.270Z,4.9
2023-02-27T18:37:14.723Z,4.2
2023-02-27T18:40:02.260Z,3.7
2023-02-27T18:42:52.005Z,3.4
2023-02-27T18:45:39.903Z,5.1
2023-02-27T18:48:27.247Z,5.7
2023-02-27T18:51:14.658Z,5.1
2023-02-27T18:54:03.353Z,4.4
2023-02-27T18:56:51.529Z,3.8
2023-02-27T18:59:38.977Z,3.4
2023-02-27T19:02:26.551Z,3
2023-02-27T19:05:13.935Z,2.7
2023-02-27T19:08:01.888Z,3.4
2023-02-27T19:10:49.527Z,5.6
2023-02-27T19:13:37.127Z,6.1
2023-02-27T19:16:24.681Z,5.4
2023-02-27T19:19:12.627Z,4.6
2023-02-27T19:22:00.128Z,4
2023-02-27T19:24:47.764Z,3.6
2023-02-27T19:27:35.360Z,3.2
2023-02-27T19:30:22.905Z,4.6
2023-02-27T19:33:11.087Z,6.3
2023-02-27T19:35:58.571Z,5.8
2023-02-27T19:38:51.101Z,4.9
2023-02-27T19:41:39.807Z,4.2
2023-02-27T19:44:27.097Z,3.7
2023-02-27T19:47:14.545Z,3.2
2023-02-27T19:50:02.207Z,2.8
2023-02-27T19:52:52.504Z,3.8
2023-02-27T19:55:39.924Z,5.9
2023-02-27T19:58:27.297Z,6.1
2023-02-27T20:01:15.778Z,5.3
2023-02-27T20:04:09.570Z,4.5
2023-02-27T20:06:58.845Z,3.8
2023-02-27T20:09:46.862Z,3.3
2023-02-27T20:12:34.303Z,3
2023-02-27T20:15:22.010Z,2.7
2023-02-27T20:18:09.702Z,3.4
2023-02-27T20:20:58.293Z,5.5
2023-02-27T20:23:48.099Z,5.6
2023-02-27T20:26:36.968Z,4.9
2023-02-27T20:29:26.229Z,4.2
2023-02-27T20:32:13.798Z,3.7
2023-02-27T20:35:01.305Z,3.2
2023-02-27T20:37:51.131Z,2.8
2023-02-27T20:40:43.513Z,3.9
2023-02-27T20:43:31.392Z,5.8
2023-02-27T20:46:19.827Z,5.5
2023-02-27T20:49:09.958Z,4.8
2023-02-27T20:52:00.121Z,4.1
2023-02-27T20:54:48.301Z,3.6
2023-02-27T20:57:35.751Z,3.2
2023-02-27T21:00:23.163Z,2.9
2023-02-27T21:03:11.498Z,2.6
2023-02-27T21:05:59.052Z,3.3
2023-02-27T21:08:46.356Z,5.3
2023-02-27T21:11:38.331Z,5.5
2023-02-27T21:14:26.061Z,4.8
2023-02-27T21:17:13.482Z,4.2
2023-02-27T21:20:00.819Z,3.6
2023-02-27T21:22:50.492Z,3.1
2023-02-27T21:25:40.303Z,2.8
2023-02-27T21:28:28.775Z,2.4
2023-02-27T21:31:16.224Z,3.3
2023-02-27T21:34:06.195Z,5.5
2023-02-27T21:36:57.822Z,5.5
2023-02-27T21:39:47.662Z,4.7
2023-02-27T21:42:39.682Z,3.9
2023-02-27T21:45:28.032Z,3.2
2023-02-27T21:48:15.441Z,2.7
2023-02-27T21:51:03.236Z,2.3
2023-02-27T21:53:51.676Z,3.1
2023-02-27T21:56:41.527Z,5.3
2023-02-27T21:59:35.414Z,5.4
2023-02-27T22:02:22.770Z,4.5
2023-02-27T22:05:10.490Z,3.7
2023-02-27T22:07:58.654Z,3
2023-02-27T22:10:46.092Z,2.4
2023-02-27T22:13:33.933Z,1.9
2023-02-27T22:16:22.299Z,3.3
2023-02-27T22:19:10.542Z,5.4
2023-02-27T22:22:04.217Z,5.2
2023-02-27T22:24:51.531Z,4.2
2023-02-27T22:27:38.964Z,3.4
2023-02-27T22:30:26.440Z,2.7
2023-02-27T22:33:14.497Z,2.3
2023-02-27T22:36:02.645Z,4
2023-02-27T22:38:52.161Z,5.2
2023-02-27T22:41:39.659Z,4.5
2023-02-27T22:44:27.740Z,3.6
2023-02-27T22:47:15.086Z,2.9
2023-02-27T22:50:02.719Z,2.2
2023-02-27T22:52:52.240Z,1.9
2023-02-27T22:55:39.635Z,3.6
2023-02-27T22:58:27.020Z,5.5
2023-02-27T23:01:15.618Z,5.1
2023-02-27T23:04:05.255Z,4.2
2023-02-27T23:06:55.859Z,3.3
2023-02-27T23:09:43.317Z,2.5
2023-02-27T23:12:30.641Z,2
2023-02-27T23:15:18.817Z,1.5
2023-02-27T23:18:06.673Z,3
2023-02-27T23:20:54.524Z,4.9
2023-02-27T23:23:41.813Z,4.7
2023-02-27T23:26:29.512Z,3.7
2023-02-27T23:29:17.174Z,2.9
2023-02-27T23:32:05.309Z,2.2
2023-02-27T23:34:52.683Z,1.7
2023-02-27T23:37:40.398Z,2
2023-02-27T23:40:27.916Z,4.2
2023-02-27T23:43:15.409Z,4.7
2023-02-27T23:46:34.717Z,3.7
2023-02-27T23:49:22.712Z,2.8
2023-02-27T23:52:10.363Z,2.1
2023-02-27T23:54:58.792Z,2.5
2023-02-27T23:57:46.086Z,4.4
